sensor_id;sensor_type;location;lat;lon;timestamp;temperature;humidity
12452;DHT22;6291;48.924;12.204;2022-09-20T00:02:11;9.30;99.90
12452;DHT22;6291;48.924;12.204;2022-09-20T00:07:14;12.20;99.90
12452;DHT22;6291;48.924;12.204;2022-09-20T00:12:18;9.30;99.90
12452;DHT22;6291;48.924;12.204;2022-09-20T00:17:23;9.40;99.90
12452;DHT22;6291;48.924;12.204;2022-09-20T00:22:26;9.40;99.90
12452;DHT22;6291;48.924;12.204;2022-09-20T00:27:29;9.40;99.90
12452;DHT22;6291;48.924;12.204;2022-09-20T00:32:34;9.40;99.90
12452;DHT22;6291;48.924;12.204;2022-09-20T00:37:40;9.30;99.90
12452;DHT22;6291;48.924;12.204;2022-09-20T00:42:43;9.30;99.90
12452;DHT22;6291;48.924;12.204;2022-09-20T00:47:51;9.30;99.90
12452;DHT22;6291;48.924;12.204;2022-09-20T00:52:59;9.30;99.90
12452;DHT22;6291;48.924;12.204;2022-09-20T00:58:03;9.30;99.90
12452;DHT22;6291;48.924;12.204;2022-09-20T01:03:10;9.30;99.90
12452;DHT22;6291;48.924;12.204;2022-09-20T01:08:15;9.30;99.90
12452;DHT22;6291;48.924;12.204;2022-09-20T01:13:19;9.30;99.90
12452;DHT22;6291;48.924;12.204;2022-09-20T01:18:24;9.30;99.90
12452;DHT22;6291;48.924;12.204;2022-09-20T01:23:37;9.30;99.90
12452;DHT22;6291;48.924;12.204;2022-09-20T01:28:48;9.40;99.90
12452;DHT22;6291;48.924;12.204;2022-09-20T01:33:55;9.30;99.90
12452;DHT22;6291;48.924;12.204;2022-09-20T01:39:05;9.40;99.90
12452;DHT22;6291;48.924;12.204;2022-09-20T01:44:17;9.40;99.90
12452;DHT22;6291;48.924;12.204;2022-09-20T01:49:41;9.40;99.90
12452;DHT22;6291;48.924;12.204;2022-09-20T01:55:17;9.40;99.90
12452;DHT22;6291;48.924;12.204;2022-09-20T02:00:28;9.30;99.90
12452;DHT22;6291;48.924;12.204;2022-09-20T02:06:05;9.20;99.90
12452;DHT22;6291;48.924;12.204;2022-09-20T02:11:12;9.20;99.90
12452;DHT22;6291;48.924;12.204;2022-09-20T02:16:33;9.10;99.90
12452;DHT22;6291;48.924;12.204;2022-09-20T02:21:45;9.10;99.90
12452;DHT22;6291;48.924;12.204;2022-09-20T02:27:04;9.10;99.90
12452;DHT22;6291;48.924;12.204;2022-09-20T02:32:23;9.00;99.90
12452;DHT22;6291;48.924;12.204;2022-09-20T02:37:44;9.00;99.90
12452;DHT22;6291;48.924;12.204;2022-09-20T02:42:59;9.00;99.90
12452;DHT22;6291;48.924;12.204;2022-09-20T02:48:06;9.10;99.90
12452;DHT22;6291;48.924;12.204;2022-09-20T02:53:22;9.30;99.90
12452;DHT22;6291;48.924;12.204;2022-09-20T02:58:36;9.20;99.90
12452;DHT22;6291;48.924;12.204;2022-09-20T03:03:49;9.20;99.90
12452;DHT22;6291;48.924;12.204;2022-09-20T03:09:01;9.20;99.90
12452;DHT22;6291;48.924;12.204;2022-09-20T03:14:12;9.20;99.90
12452;DHT22;6291;48.924;12.204;2022-09-20T03:19:31;9.10;99.90
12452;DHT22;6291;48.924;12.204;2022-09-20T03:24:43;9.10;99.90
12452;DHT22;6291;48.924;12.204;2022-09-20T03:30:00;9.10;99.90
12452;DHT22;6291;48.924;12.204;2022-09-20T03:35:21;9.10;99.90
12452;DHT22;6291;48.924;12.204;2022-09-20T03:40:55;9.10;99.90
12452;DHT22;6291;48.924;12.204;2022-09-20T03:46:14;9.10;99.90
12452;DHT22;6291;48.924;12.204;2022-09-20T03:51:27;9.20;99.90
12452;DHT22;6291;48.924;12.204;2022-09-20T03:57:16;9.20;99.90
12452;DHT22;6291;48.924;12.204;2022-09-20T04:02:52;9.20;99.90
12452;DHT22;6291;48.924;12.204;2022-09-20T04:08:08;9.30;99.90
12452;DHT22;6291;48.924;12.204;2022-09-20T04:13:33;9.20;99.90
12452;DHT22;6291;48.924;12.204;2022-09-20T04:18:42;9.20;99.90
12452;DHT22;6291;48.924;12.204;2022-09-20T04:23:52;9.20;99.90
12452;DHT22;6291;48.924;12.204;2022-09-20T04:29:04;9.20;99.90
12452;DHT22;6291;48.924;12.204;2022-09-20T04:34:15;9.20;99.90
12452;DHT22;6291;48.924;12.204;2022-09-20T04:39:32;9.20;99.90
12452;DHT22;6291;48.924;12.204;2022-09-20T04:45:05;9.00;99.90
12452;DHT22;6291;48.924;12.204;2022-09-20T04:55:59;9.00;99.90
12452;DHT22;6291;48.924;12.204;2022-09-20T05:01:37;9.00;99.90
12452;DHT22;6291;48.924;12.204;2022-09-20T05:07:03;9.10;99.90
12452;DHT22;6291;48.924;12.204;2022-09-20T05:12:43;9.10;99.90
12452;DHT22;6291;48.924;12.204;2022-09-20T05:18:17;9.10;99.90
12452;DHT22;6291;48.924;12.204;2022-09-20T05:23:47;9.10;99.90
12452;DHT22;6291;48.924;12.204;2022-09-20T05:28:58;9.00;99.90
12452;DHT22;6291;48.924;12.204;2022-09-20T05:34:10;9.00;99.90
12452;DHT22;6291;48.924;12.204;2022-09-20T05:39:31;9.00;99.90
12452;DHT22;6291;48.924;12.204;2022-09-20T05:44:54;9.00;99.90
12452;DHT22;6291;48.924;12.204;2022-09-20T05:50:08;9.00;99.90
12452;DHT22;6291;48.924;12.204;2022-09-20T05:55:45;9.10;99.90
12452;DHT22;6291;48.924;12.204;2022-09-20T06:00:57;9.10;99.90
12452;DHT22;6291;48.924;12.204;2022-09-20T06:06:05;9.20;99.90
12452;DHT22;6291;48.924;12.204;2022-09-20T06:11:20;9.20;99.90
12452;DHT22;6291;48.924;12.204;2022-09-20T06:16:42;9.30;99.90
12452;DHT22;6291;48.924;12.204;2022-09-20T06:21:51;9.30;99.90
12452;DHT22;6291;48.924;12.204;2022-09-20T06:26:56;9.30;99.90
12452;DHT22;6291;48.924;12.204;2022-09-20T06:32:02;9.40;99.90
12452;DHT22;6291;48.924;12.204;2022-09-20T06:37:17;9.40;99.90
12452;DHT22;6291;48.924;12.204;2022-09-20T06:42:42;9.50;99.90
12452;DHT22;6291;48.924;12.204;2022-09-20T06:47:47;9.40;99.90
12452;DHT22;6291;48.924;12.204;2022-09-20T06:52:50;9.50;99.90
12452;DHT22;6291;48.924;12.204;2022-09-20T06:57:56;9.60;99.90
12452;DHT22;6291;48.924;12.204;2022-09-20T07:03:01;9.70;99.90
12452;DHT22;6291;48.924;12.204;2022-09-20T07:08:04;9.80;99.90
12452;DHT22;6291;48.924;12.204;2022-09-20T07:13:09;9.90;99.90
12452;DHT22;6291;48.924;12.204;2022-09-20T07:18:16;10.00;99.90
12452;DHT22;6291;48.924;12.204;2022-09-20T07:23:19;10.20;99.90
12452;DHT22;6291;48.924;12.204;2022-09-20T07:28:22;10.50;99.90
12452;DHT22;6291;48.924;12.204;2022-09-20T07:33:27;10.70;99.90
12452;DHT22;6291;48.924;12.204;2022-09-20T07:38:30;11.70;99.90
12452;DHT22;6291;48.924;12.204;2022-09-20T07:43:33;11.80;99.90
12452;DHT22;6291;48.924;12.204;2022-09-20T07:48:39;12.00;99.90
12452;DHT22;6291;48.924;12.204;2022-09-20T07:53:42;12.40;99.90
12452;DHT22;6291;48.924;12.204;2022-09-20T07:58:46;12.70;99.90
12452;DHT22;6291;48.924;12.204;2022-09-20T08:03:54;13.00;99.90
12452;DHT22;6291;48.924;12.204;2022-09-20T08:08:58;12.70;99.90
12452;DHT22;6291;48.924;12.204;2022-09-20T08:14:02;12.10;99.90
12452;DHT22;6291;48.924;12.204;2022-09-20T08:19:20;12.30;99.90
12452;DHT22;6291;48.924;12.204;2022-09-20T08:24:24;12.70;99.90
12452;DHT22;6291;48.924;12.204;2022-09-20T08:29:28;12.60;99.90
12452;DHT22;6291;48.924;12.204;2022-09-20T08:34:32;12.10;99.90
12452;DHT22;6291;48.924;12.204;2022-09-20T08:39:35;12.00;99.90
12452;DHT22;6291;48.924;12.204;2022-09-20T08:45:02;11.80;99.90
12452;DHT22;6291;48.924;12.204;2022-09-20T08:50:10;11.70;99.90
12452;DHT22;6291;48.924;12.204;2022-09-20T08:55:20;12.00;99.90
12452;DHT22;6291;48.924;12.204;2022-09-20T09:00:27;12.60;99.90
12452;DHT22;6291;48.924;12.204;2022-09-20T09:05:35;13.00;99.90
12452;DHT22;6291;48.924;12.204;2022-09-20T09:10:39;13.70;99.90
12452;DHT22;6291;48.924;12.204;2022-09-20T09:15:46;13.40;99.90
12452;DHT22;6291;48.924;12.204;2022-09-20T09:20:55;13.10;99.90
12452;DHT22;6291;48.924;12.204;2022-09-20T09:26:02;12.80;99.90
12452;DHT22;6291;48.924;12.204;2022-09-20T09:31:13;13.40;99.90
12452;DHT22;6291;48.924;12.204;2022-09-20T09:36:20;13.50;99.90
12452;DHT22;6291;48.924;12.204;2022-09-20T09:41:28;13.30;99.90
12452;DHT22;6291;48.924;12.204;2022-09-20T09:46:37;14.10;99.90
12452;DHT22;6291;48.924;12.204;2022-09-20T09:52:00;13.80;99.30
12452;DHT22;6291;48.924;12.204;2022-09-20T09:57:16;12.90;99.50
12452;DHT22;6291;48.924;12.204;2022-09-20T10:02:55;12.60;99.90
12452;DHT22;6291;48.924;12.204;2022-09-20T10:08:12;13.80;98.30
12452;DHT22;6291;48.924;12.204;2022-09-20T10:13:22;15.80;94.40
12452;DHT22;6291;48.924;12.204;2022-09-20T10:18:36;15.50;92.40
12452;DHT22;6291;48.924;12.204;2022-09-20T10:24:04;16.40;91.40
12452;DHT22;6291;48.924;12.204;2022-09-20T10:29:18;15.40;90.10
12452;DHT22;6291;48.924;12.204;2022-09-20T10:34:55;15.40;89.70
12452;DHT22;6291;48.924;12.204;2022-09-20T10:40:15;14.50;91.20
12452;DHT22;6291;48.924;12.204;2022-09-20T10:45:23;14.90;91.70
12452;DHT22;6291;48.924;12.204;2022-09-20T10:50:54;15.40;89.70
12452;DHT22;6291;48.924;12.204;2022-09-20T10:56:14;16.70;88.00
12452;DHT22;6291;48.924;12.204;2022-09-20T11:01:26;14.20;94.40
12452;DHT22;6291;48.924;12.204;2022-09-20T11:06:41;13.30;97.30
12452;DHT22;6291;48.924;12.204;2022-09-20T11:11:54;13.20;99.90
12452;DHT22;6291;48.924;12.204;2022-09-20T11:17:05;14.80;99.90
12452;DHT22;6291;48.924;12.204;2022-09-20T11:22:14;19.70;98.20
12452;DHT22;6291;48.924;12.204;2022-09-20T11:27:22;16.70;93.60
12452;DHT22;6291;48.924;12.204;2022-09-20T11:32:31;18.50;88.80
12452;DHT22;6291;48.924;12.204;2022-09-20T11:37:38;16.90;87.90
12452;DHT22;6291;48.924;12.204;2022-09-20T11:42:45;15.60;89.00
12452;DHT22;6291;48.924;12.204;2022-09-20T11:47:52;14.30;92.60
12452;DHT22;6291;48.924;12.204;2022-09-20T11:53:05;14.20;94.30
12452;DHT22;6291;48.924;12.204;2022-09-20T11:58:26;14.10;93.80
12452;DHT22;6291;48.924;12.204;2022-09-20T12:03:33;14.10;91.60
12452;DHT22;6291;48.924;12.204;2022-09-20T12:08:40;16.00;93.40
12452;DHT22;6291;48.924;12.204;2022-09-20T12:13:56;17.90;84.10
12452;DHT22;6291;48.924;12.204;2022-09-20T12:19:02;16.20;83.80
12452;DHT22;6291;48.924;12.204;2022-09-20T12:24:20;14.60;85.50
12452;DHT22;6291;48.924;12.204;2022-09-20T12:30:05;15.00;84.80
12452;DHT22;6291;48.924;12.204;2022-09-20T12:41:00;14.20;86.80
12452;DHT22;6291;48.924;12.204;2022-09-20T12:46:05;14.00;87.80
12452;DHT22;6291;48.924;12.204;2022-09-20T12:51:20;16.80;91.70
12452;DHT22;6291;48.924;12.204;2022-09-20T12:56:44;14.00;91.80
12452;DHT22;6291;48.924;12.204;2022-09-20T13:01:49;13.90;92.10
12452;DHT22;6291;48.924;12.204;2022-09-20T13:07:34;15.30;91.50
12452;DHT22;6291;48.924;12.204;2022-09-20T13:12:44;16.80;87.80
12452;DHT22;6291;48.924;12.204;2022-09-20T13:17:55;18.20;77.40
12452;DHT22;6291;48.924;12.204;2022-09-20T13:23:00;18.80;76.20
12452;DHT22;6291;48.924;12.204;2022-09-20T13:28:08;20.70;67.40
12452;DHT22;6291;48.924;12.204;2022-09-20T13:33:24;19.60;68.70
12452;DHT22;6291;48.924;12.204;2022-09-20T13:38:28;16.30;80.10
12452;DHT22;6291;48.924;12.204;2022-09-20T13:43:36;16.00;89.10
12452;DHT22;6291;48.924;12.204;2022-09-20T13:48:45;19.20;73.50
12452;DHT22;6291;48.924;12.204;2022-09-20T13:53:49;17.30;79.00
12452;DHT22;6291;48.924;12.204;2022-09-20T13:58:52;15.60;87.90
12452;DHT22;6291;48.924;12.204;2022-09-20T14:04:03;16.50;90.50
12452;DHT22;6291;48.924;12.204;2022-09-20T14:14:30;18.30;75.90
12452;DHT22;6291;48.924;12.204;2022-09-20T14:19:39;20.10;71.80
12452;DHT22;6291;48.924;12.204;2022-09-20T14:24:56;18.30;72.40
12452;DHT22;6291;48.924;12.204;2022-09-20T14:30:00;20.00;71.30
12452;DHT22;6291;48.924;12.204;2022-09-20T14:35:13;22.50;61.00
12452;DHT22;6291;48.924;12.204;2022-09-20T14:40:21;22.50;58.20
12452;DHT22;6291;48.924;12.204;2022-09-20T14:45:29;23.80;57.10
12452;DHT22;6291;48.924;12.204;2022-09-20T14:50:36;24.30;55.50
12452;DHT22;6291;48.924;12.204;2022-09-20T14:55:55;19.60;54.00
12452;DHT22;6291;48.924;12.204;2022-09-20T15:01:01;19.60;63.50
12452;DHT22;6291;48.924;12.204;2022-09-20T15:06:10;18.20;70.00
12452;DHT22;6291;48.924;12.204;2022-09-20T15:11:16;19.70;63.00
12452;DHT22;6291;48.924;12.204;2022-09-20T15:16:21;19.70;66.00
12452;DHT22;6291;48.924;12.204;2022-09-20T15:21:26;19.30;65.40
12452;DHT22;6291;48.924;12.204;2022-09-20T15:26:30;20.40;63.20
12452;DHT22;6291;48.924;12.204;2022-09-20T15:31:35;21.80;59.20
12452;DHT22;6291;48.924;12.204;2022-09-20T15:36:40;21.00;57.20
12452;DHT22;6291;48.924;12.204;2022-09-20T15:41:44;20.10;60.00
12452;DHT22;6291;48.924;12.204;2022-09-20T15:46:49;20.10;59.30
12452;DHT22;6291;48.924;12.204;2022-09-20T15:51:54;20.90;58.40
12452;DHT22;6291;48.924;12.204;2022-09-20T15:56:58;20.90;58.10
12452;DHT22;6291;48.924;12.204;2022-09-20T16:02:01;19.20;61.80
12452;DHT22;6291;48.924;12.204;2022-09-20T16:07:06;17.10;65.50
12452;DHT22;6291;48.924;12.204;2022-09-20T16:12:10;18.50;72.40
12452;DHT22;6291;48.924;12.204;2022-09-20T16:17:13;14.90;74.40
12452;DHT22;6291;48.924;12.204;2022-09-20T16:22:18;14.60;76.50
12452;DHT22;6291;48.924;12.204;2022-09-20T16:27:22;14.30;79.50
12452;DHT22;6291;48.924;12.204;2022-09-20T16:32:25;14.20;79.00
12452;DHT22;6291;48.924;12.204;2022-09-20T16:37:29;14.10;81.20
12452;DHT22;6291;48.924;12.204;2022-09-20T16:42:33;13.70;81.40
12452;DHT22;6291;48.924;12.204;2022-09-20T16:47:38;13.20;85.00
12452;DHT22;6291;48.924;12.204;2022-09-20T16:52:44;13.00;86.10
12452;DHT22;6291;48.924;12.204;2022-09-20T16:57:48;12.80;87.60
12452;DHT22;6291;48.924;12.204;2022-09-20T17:02:52;12.60;88.90
12452;DHT22;6291;48.924;12.204;2022-09-20T17:07:57;12.40;90.90
12452;DHT22;6291;48.924;12.204;2022-09-20T17:13:01;12.30;91.60
12452;DHT22;6291;48.924;12.204;2022-09-20T17:18:08;12.00;92.70
12452;DHT22;6291;48.924;12.204;2022-09-20T17:23:17;11.80;95.50
12452;DHT22;6291;48.924;12.204;2022-09-20T17:28:21;11.60;97.70
12452;DHT22;6291;48.924;12.204;2022-09-20T17:33:26;11.30;99.90
12452;DHT22;6291;48.924;12.204;2022-09-20T17:38:33;11.10;99.90
12452;DHT22;6291;48.924;12.204;2022-09-20T17:43:37;11.10;99.90
12452;DHT22;6291;48.924;12.204;2022-09-20T17:48:41;10.90;99.90
12452;DHT22;6291;48.924;12.204;2022-09-20T17:53:52;10.70;99.90
12452;DHT22;6291;48.924;12.204;2022-09-20T17:58:56;10.50;99.90
12452;DHT22;6291;48.924;12.204;2022-09-20T18:04:01;10.30;99.90
12452;DHT22;6291;48.924;12.204;2022-09-20T18:09:07;10.20;99.90
12452;DHT22;6291;48.924;12.204;2022-09-20T18:14:11;10.30;99.90
12452;DHT22;6291;48.924;12.204;2022-09-20T18:19:15;10.50;99.90
12452;DHT22;6291;48.924;12.204;2022-09-20T18:24:20;10.40;99.90
12452;DHT22;6291;48.924;12.204;2022-09-20T18:29:24;10.40;99.90
12452;DHT22;6291;48.924;12.204;2022-09-20T18:34:29;10.00;99.90
12452;DHT22;6291;48.924;12.204;2022-09-20T18:39:36;10.50;99.90
12452;DHT22;6291;48.924;12.204;2022-09-20T18:44:40;10.70;99.90
12452;DHT22;6291;48.924;12.204;2022-09-20T18:49:44;10.70;99.90
12452;DHT22;6291;48.924;12.204;2022-09-20T18:54:49;10.70;99.90
12452;DHT22;6291;48.924;12.204;2022-09-20T18:59:53;10.80;99.90
12452;DHT22;6291;48.924;12.204;2022-09-20T19:05:14;6.90;99.90
12452;DHT22;6291;48.924;12.204;2022-09-20T19:10:25;10.80;99.90
12452;DHT22;6291;48.924;12.204;2022-09-20T19:15:43;13.60;99.90
12452;DHT22;6291;48.924;12.204;2022-09-20T19:20:52;10.80;99.90
12452;DHT22;6291;48.924;12.204;2022-09-20T19:26:04;10.60;99.90
12452;DHT22;6291;48.924;12.204;2022-09-20T19:31:17;10.40;99.90
12452;DHT22;6291;48.924;12.204;2022-09-20T19:36:24;9.40;99.90
12452;DHT22;6291;48.924;12.204;2022-09-20T19:41:36;9.90;99.90
12452;DHT22;6291;48.924;12.204;2022-09-20T19:46:51;9.90;99.90
12452;DHT22;6291;48.924;12.204;2022-09-20T19:52:03;10.00;99.90
12452;DHT22;6291;48.924;12.204;2022-09-20T19:57:17;9.90;99.90
12452;DHT22;6291;48.924;12.204;2022-09-20T20:02:21;9.80;99.90
12452;DHT22;6291;48.924;12.204;2022-09-20T20:07:30;9.60;99.90
12452;DHT22;6291;48.924;12.204;2022-09-20T20:12:41;9.60;99.90
12452;DHT22;6291;48.924;12.204;2022-09-20T20:17:54;9.50;99.90
12452;DHT22;6291;48.924;12.204;2022-09-20T20:28:45;9.20;99.90
12452;DHT22;6291;48.924;12.204;2022-09-20T20:33:48;9.10;99.90
12452;DHT22;6291;48.924;12.204;2022-09-20T20:38:52;9.10;99.90
12452;DHT22;6291;48.924;12.204;2022-09-20T20:43:57;9.00;99.90
12452;DHT22;6291;48.924;12.204;2022-09-20T20:49:01;9.00;99.90
12452;DHT22;6291;48.924;12.204;2022-09-20T20:54:04;9.10;99.90
12452;DHT22;6291;48.924;12.204;2022-09-20T20:59:09;9.10;99.90
12452;DHT22;6291;48.924;12.204;2022-09-20T21:04:13;9.00;99.90
12452;DHT22;6291;48.924;12.204;2022-09-20T21:09:18;8.80;99.90
12452;DHT22;6291;48.924;12.204;2022-09-20T21:14:23;8.70;99.90
12452;DHT22;6291;48.924;12.204;2022-09-20T21:19:27;8.70;99.90
12452;DHT22;6291;48.924;12.204;2022-09-20T21:24:30;8.70;99.90
12452;DHT22;6291;48.924;12.204;2022-09-20T21:29:35;8.70;99.90
12452;DHT22;6291;48.924;12.204;2022-09-20T21:34:38;8.70;99.90
12452;DHT22;6291;48.924;12.204;2022-09-20T21:39:41;8.60;99.90
12452;DHT22;6291;48.924;12.204;2022-09-20T21:44:46;8.50;99.90
12452;DHT22;6291;48.924;12.204;2022-09-20T21:49:49;8.40;99.90
12452;DHT22;6291;48.924;12.204;2022-09-20T21:54:52;8.40;99.90
12452;DHT22;6291;48.924;12.204;2022-09-20T21:59:57;8.20;99.90
12452;DHT22;6291;48.924;12.204;2022-09-20T22:05:00;8.00;99.90
12452;DHT22;6291;48.924;12.204;2022-09-20T22:10:05;7.80;99.90
12452;DHT22;6291;48.924;12.204;2022-09-20T22:15:10;7.80;99.90
12452;DHT22;6291;48.924;12.204;2022-09-20T22:20:13;7.90;99.90
12452;DHT22;6291;48.924;12.204;2022-09-20T22:25:17;7.80;99.90
12452;DHT22;6291;48.924;12.204;2022-09-20T22:30:21;7.80;99.90
12452;DHT22;6291;48.924;12.204;2022-09-20T22:35:25;7.80;99.90
12452;DHT22;6291;48.924;12.204;2022-09-20T22:40:28;7.70;99.90
12452;DHT22;6291;48.924;12.204;2022-09-20T22:45:33;7.70;99.90
12452;DHT22;6291;48.924;12.204;2022-09-20T22:50:36;7.60;99.90
12452;DHT22;6291;48.924;12.204;2022-09-20T22:55:39;7.60;99.90
12452;DHT22;6291;48.924;12.204;2022-09-20T23:00:44;7.80;99.90
12452;DHT22;6291;48.924;12.204;2022-09-20T23:05:47;7.60;99.90
12452;DHT22;6291;48.924;12.204;2022-09-20T23:10:57;7.40;99.90
12452;DHT22;6291;48.924;12.204;2022-09-20T23:16:11;7.30;99.90
12452;DHT22;6291;48.924;12.204;2022-09-20T23:21:15;7.30;99.90
12452;DHT22;6291;48.924;12.204;2022-09-20T23:26:19;7.20;99.90
12452;DHT22;6291;48.924;12.204;2022-09-20T23:31:25;7.00;99.90
12452;DHT22;6291;48.924;12.204;2022-09-20T23:36:30;6.90;99.90
12452;DHT22;6291;48.924;12.204;2022-09-20T23:41:34;4.20;99.90
12452;DHT22;6291;48.924;12.204;2022-09-20T23:46:39;6.90;99.90
12452;DHT22;6291;48.924;12.204;2022-09-20T23:51:43;6.90;99.90
12452;DHT22;6291;48.924;12.204;2022-09-20T23:56:46;7.00;99.90
